sensor_id;sensor_type;location;lat;lon;timestamp;pressure;altitude;pressure_sealevel;temperature
8227;BMP180;4154;48.810;9.012;2023-10-31T00:01:32;95533.00;;;11.90
8227;BMP180;4154;48.810;9.012;2023-10-31T00:03:58;95545.00;;;11.90
8227;BMP180;4154;48.810;9.012;2023-10-31T00:06:24;95544.00;;;11.90
8227;BMP180;4154;48.810;9.012;2023-10-31T00:08:50;95549.00;;;11.90
8227;BMP180;4154;48.810;9.012;2023-10-31T00:11:15;95558.00;;;11.90
8227;BMP180;4154;48.810;9.012;2023-10-31T00:13:42;95555.00;;;11.90
8227;BMP180;4154;48.810;9.012;2023-10-31T00:16:07;95562.00;;;11.80
8227;BMP180;4154;48.810;9.012;2023-10-31T00:18:33;95574.00;;;11.90
8227;BMP180;4154;48.810;9.012;2023-10-31T00:20:59;95580.00;;;11.80
8227;BMP180;4154;48.810;9.012;2023-10-31T00:23:24;95576.00;;;11.80
8227;BMP180;4154;48.810;9.012;2023-10-31T00:25:50;95583.00;;;11.80
8227;BMP180;4154;48.810;9.012;2023-10-31T00:28:16;95592.00;;;11.70
8227;BMP180;4154;48.810;9.012;2023-10-31T00:30:41;95592.00;;;11.70
8227;BMP180;4154;48.810;9.012;2023-10-31T00:33:07;95588.00;;;11.70
8227;BMP180;4154;48.810;9.012;2023-10-31T00:35:33;95589.00;;;11.80
8227;BMP180;4154;48.810;9.012;2023-10-31T00:37:58;95589.00;;;11.80
8227;BMP180;4154;48.810;9.012;2023-10-31T00:40:24;95593.00;;;11.80
8227;BMP180;4154;48.810;9.012;2023-10-31T00:42:49;95594.00;;;11.80
8227;BMP180;4154;48.810;9.012;2023-10-31T00:45:15;95600.00;;;11.80
8227;BMP180;4154;48.810;9.012;2023-10-31T00:47:41;95599.00;;;11.80
8227;BMP180;4154;48.810;9.012;2023-10-31T00:50:07;95601.00;;;11.80
8227;BMP180;4154;48.810;9.012;2023-10-31T00:52:33;95601.00;;;11.70
8227;BMP180;4154;48.810;9.012;2023-10-31T00:54:59;95608.00;;;11.70
8227;BMP180;4154;48.810;9.012;2023-10-31T00:57:25;95602.00;;;11.70
8227;BMP180;4154;48.810;9.012;2023-10-31T00:59:50;95608.00;;;11.70
8227;BMP180;4154;48.810;9.012;2023-10-31T01:02:16;95605.00;;;11.70
8227;BMP180;4154;48.810;9.012;2023-10-31T01:04:42;95603.00;;;11.60
8227;BMP180;4154;48.810;9.012;2023-10-31T01:07:07;95615.00;;;11.50
8227;BMP180;4154;48.810;9.012;2023-10-31T01:09:37;95603.00;;;11.50
8227;BMP180;4154;48.810;9.012;2023-10-31T01:12:03;95617.00;;;11.50
8227;BMP180;4154;48.810;9.012;2023-10-31T01:14:29;95615.00;;;11.30
8227;BMP180;4154;48.810;9.012;2023-10-31T01:16:54;95603.00;;;11.30
8227;BMP180;4154;48.810;9.012;2023-10-31T01:19:20;95604.00;;;11.20
8227;BMP180;4154;48.810;9.012;2023-10-31T01:21:45;95597.00;;;11.20
8227;BMP180;4154;48.810;9.012;2023-10-31T01:24:11;95593.00;;;11.20
8227;BMP180;4154;48.810;9.012;2023-10-31T01:26:37;95599.00;;;11.10
8227;BMP180;4154;48.810;9.012;2023-10-31T01:29:02;95589.00;;;11.00
8227;BMP180;4154;48.810;9.012;2023-10-31T01:31:28;95602.00;;;11.00
8227;BMP180;4154;48.810;9.012;2023-10-31T01:33:54;95607.00;;;11.00
8227;BMP180;4154;48.810;9.012;2023-10-31T01:36:25;95626.00;;;11.00
8227;BMP180;4154;48.810;9.012;2023-10-31T01:38:50;95629.00;;;10.90
8227;BMP180;4154;48.810;9.012;2023-10-31T01:41:16;95636.00;;;10.90
8227;BMP180;4154;48.810;9.012;2023-10-31T01:43:41;95635.00;;;10.90
8227;BMP180;4154;48.810;9.012;2023-10-31T01:46:07;95643.00;;;10.90
8227;BMP180;4154;48.810;9.012;2023-10-31T01:48:33;95630.00;;;10.80
8227;BMP180;4154;48.810;9.012;2023-10-31T01:51:02;95641.00;;;10.80
8227;BMP180;4154;48.810;9.012;2023-10-31T01:53:32;95646.00;;;10.80
8227;BMP180;4154;48.810;9.012;2023-10-31T01:56:00;95642.00;;;10.80
8227;BMP180;4154;48.810;9.012;2023-10-31T01:58:32;95640.00;;;10.80
8227;BMP180;4154;48.810;9.012;2023-10-31T02:01:00;95649.00;;;10.80
8227;BMP180;4154;48.810;9.012;2023-10-31T02:03:30;95655.00;;;10.70
8227;BMP180;4154;48.810;9.012;2023-10-31T02:05:57;95654.00;;;10.70
8227;BMP180;4154;48.810;9.012;2023-10-31T02:08:24;95665.00;;;10.70
8227;BMP180;4154;48.810;9.012;2023-10-31T02:10:50;95669.00;;;10.70
8227;BMP180;4154;48.810;9.012;2023-10-31T02:13:17;95675.00;;;10.70
8227;BMP180;4154;48.810;9.012;2023-10-31T02:15:44;95671.00;;;10.70
8227;BMP180;4154;48.810;9.012;2023-10-31T02:18:11;95664.00;;;10.70
8227;BMP180;4154;48.810;9.012;2023-10-31T02:20:37;95686.00;;;10.70
8227;BMP180;4154;48.810;9.012;2023-10-31T02:23:03;95683.00;;;10.70
8227;BMP180;4154;48.810;9.012;2023-10-31T02:25:30;95681.00;;;10.70
8227;BMP180;4154;48.810;9.012;2023-10-31T02:27:56;95673.00;;;10.70
8227;BMP180;4154;48.810;9.012;2023-10-31T02:30:22;95680.00;;;10.70
8227;BMP180;4154;48.810;9.012;2023-10-31T02:32:48;95680.00;;;10.70
8227;BMP180;4154;48.810;9.012;2023-10-31T02:35:17;95680.00;;;10.70
8227;BMP180;4154;48.810;9.012;2023-10-31T02:37:45;95676.00;;;10.60
8227;BMP180;4154;48.810;9.012;2023-10-31T02:40:11;95676.00;;;10.60
8227;BMP180;4154;48.810;9.012;2023-10-31T02:42:37;95692.00;;;10.60
8227;BMP180;4154;48.810;9.012;2023-10-31T02:45:03;95694.00;;;10.60
8227;BMP180;4154;48.810;9.012;2023-10-31T02:47:30;95680.00;;;10.60
8227;BMP180;4154;48.810;9.012;2023-10-31T02:49:56;95691.00;;;10.60
8227;BMP180;4154;48.810;9.012;2023-10-31T02:52:21;95699.00;;;10.50
8227;BMP180;4154;48.810;9.012;2023-10-31T02:54:47;95691.00;;;10.50
8227;BMP180;4154;48.810;9.012;2023-10-31T02:57:13;95701.00;;;10.50
8227;BMP180;4154;48.810;9.012;2023-10-31T02:59:39;95696.00;;;10.50
8227;BMP180;4154;48.810;9.012;2023-10-31T03:02:04;95696.00;;;10.50
8227;BMP180;4154;48.810;9.012;2023-10-31T03:04:30;95699.00;;;10.40
8227;BMP180;4154;48.810;9.012;2023-10-31T03:06:56;95701.00;;;10.40
8227;BMP180;4154;48.810;9.012;2023-10-31T03:09:21;95710.00;;;10.40
8227;BMP180;4154;48.810;9.012;2023-10-31T03:11:47;95717.00;;;10.40
8227;BMP180;4154;48.810;9.012;2023-10-31T03:14:13;95723.00;;;10.40
8227;BMP180;4154;48.810;9.012;2023-10-31T03:16:38;95718.00;;;10.40
8227;BMP180;4154;48.810;9.012;2023-10-31T03:19:05;95728.00;;;10.40
8227;BMP180;4154;48.810;9.012;2023-10-31T03:21:31;95727.00;;;10.40
8227;BMP180;4154;48.810;9.012;2023-10-31T03:23:57;95733.00;;;10.40
8227;BMP180;4154;48.810;9.012;2023-10-31T03:26:23;95728.00;;;10.40
8227;BMP180;4154;48.810;9.012;2023-10-31T03:28:49;95732.00;;;10.40
8227;BMP180;4154;48.810;9.012;2023-10-31T03:31:15;95740.00;;;10.40
8227;BMP180;4154;48.810;9.012;2023-10-31T03:33:41;95735.00;;;10.40
8227;BMP180;4154;48.810;9.012;2023-10-31T03:36:08;95741.00;;;10.40
8227;BMP180;4154;48.810;9.012;2023-10-31T03:38:35;95738.00;;;10.40
8227;BMP180;4154;48.810;9.012;2023-10-31T03:41:01;95738.00;;;10.40
8227;BMP180;4154;48.810;9.012;2023-10-31T03:43:27;95747.00;;;10.40
8227;BMP180;4154;48.810;9.012;2023-10-31T03:45:54;95746.00;;;10.40
8227;BMP180;4154;48.810;9.012;2023-10-31T03:48:20;95745.00;;;10.30
8227;BMP180;4154;48.810;9.012;2023-10-31T03:50:46;95754.00;;;10.30
8227;BMP180;4154;48.810;9.012;2023-10-31T03:53:12;95747.00;;;10.30
8227;BMP180;4154;48.810;9.012;2023-10-31T03:55:37;95754.00;;;10.30
8227;BMP180;4154;48.810;9.012;2023-10-31T03:58:03;95759.00;;;10.30
8227;BMP180;4154;48.810;9.012;2023-10-31T04:00:29;95753.00;;;10.30
8227;BMP180;4154;48.810;9.012;2023-10-31T04:02:55;95752.00;;;10.30
8227;BMP180;4154;48.810;9.012;2023-10-31T04:05:21;95760.00;;;10.30
8227;BMP180;4154;48.810;9.012;2023-10-31T04:07:48;95752.00;;;10.30
8227;BMP180;4154;48.810;9.012;2023-10-31T04:10:15;95758.00;;;10.30
8227;BMP180;4154;48.810;9.012;2023-10-31T04:12:41;95756.00;;;10.40
8227;BMP180;4154;48.810;9.012;2023-10-31T04:15:08;95745.00;;;10.40
8227;BMP180;4154;48.810;9.012;2023-10-31T04:17:35;95748.00;;;10.30
8227;BMP180;4154;48.810;9.012;2023-10-31T04:20:01;95744.00;;;10.30
8227;BMP180;4154;48.810;9.012;2023-10-31T04:22:27;95746.00;;;10.30
8227;BMP180;4154;48.810;9.012;2023-10-31T04:24:53;95741.00;;;10.40
8227;BMP180;4154;48.810;9.012;2023-10-31T04:27:19;95760.00;;;10.40
8227;BMP180;4154;48.810;9.012;2023-10-31T04:29:45;95759.00;;;10.40
8227;BMP180;4154;48.810;9.012;2023-10-31T04:32:11;95760.00;;;10.40
8227;BMP180;4154;48.810;9.012;2023-10-31T04:34:36;95751.00;;;10.30
8227;BMP180;4154;48.810;9.012;2023-10-31T04:37:02;95758.00;;;10.30
8227;BMP180;4154;48.810;9.012;2023-10-31T04:39:28;95754.00;;;10.30
8227;BMP180;4154;48.810;9.012;2023-10-31T04:41:53;95742.00;;;10.10
8227;BMP180;4154;48.810;9.012;2023-10-31T04:44:19;95742.00;;;10.10
8227;BMP180;4154;48.810;9.012;2023-10-31T04:46:45;95751.00;;;10.20
8227;BMP180;4154;48.810;9.012;2023-10-31T04:49:10;95754.00;;;10.10
8227;BMP180;4154;48.810;9.012;2023-10-31T04:51:37;95757.00;;;10.10
8227;BMP180;4154;48.810;9.012;2023-10-31T04:54:04;95758.00;;;10.00
8227;BMP180;4154;48.810;9.012;2023-10-31T04:56:30;95760.00;;;10.00
8227;BMP180;4154;48.810;9.012;2023-10-31T04:58:56;95756.00;;;10.00
8227;BMP180;4154;48.810;9.012;2023-10-31T05:01:22;95757.00;;;10.00
8227;BMP180;4154;48.810;9.012;2023-10-31T05:03:47;95757.00;;;10.00
8227;BMP180;4154;48.810;9.012;2023-10-31T05:06:19;95754.00;;;9.90
8227;BMP180;4154;48.810;9.012;2023-10-31T05:08:45;95749.00;;;10.00
8227;BMP180;4154;48.810;9.012;2023-10-31T05:11:10;95753.00;;;10.00
8227;BMP180;4154;48.810;9.012;2023-10-31T05:13:38;95768.00;;;10.00
8227;BMP180;4154;48.810;9.012;2023-10-31T05:16:04;95765.00;;;10.00
8227;BMP180;4154;48.810;9.012;2023-10-31T05:18:30;95775.00;;;10.00
8227;BMP180;4154;48.810;9.012;2023-10-31T05:20:55;95772.00;;;10.00
8227;BMP180;4154;48.810;9.012;2023-10-31T05:23:21;95780.00;;;10.00
8227;BMP180;4154;48.810;9.012;2023-10-31T05:25:46;95784.00;;;10.00
8227;BMP180;4154;48.810;9.012;2023-10-31T05:28:12;95780.00;;;10.00
8227;BMP180;4154;48.810;9.012;2023-10-31T05:30:38;95782.00;;;9.90
8227;BMP180;4154;48.810;9.012;2023-10-31T05:33:03;95788.00;;;9.90
8227;BMP180;4154;48.810;9.012;2023-10-31T05:35:29;95792.00;;;9.90
8227;BMP180;4154;48.810;9.012;2023-10-31T05:37:55;95784.00;;;9.90
8227;BMP180;4154;48.810;9.012;2023-10-31T05:40:20;95786.00;;;9.90
8227;BMP180;4154;48.810;9.012;2023-10-31T05:42:50;95778.00;;;9.90
8227;BMP180;4154;48.810;9.012;2023-10-31T05:45:16;95780.00;;;9.80
8227;BMP180;4154;48.810;9.012;2023-10-31T05:47:41;95775.00;;;9.80
8227;BMP180;4154;48.810;9.012;2023-10-31T05:50:08;95780.00;;;9.90
8227;BMP180;4154;48.810;9.012;2023-10-31T05:52:34;95782.00;;;9.90
8227;BMP180;4154;48.810;9.012;2023-10-31T05:55:00;95776.00;;;9.80
8227;BMP180;4154;48.810;9.012;2023-10-31T05:57:25;95792.00;;;9.80
8227;BMP180;4154;48.810;9.012;2023-10-31T05:59:51;95799.00;;;9.80
8227;BMP180;4154;48.810;9.012;2023-10-31T06:02:17;95801.00;;;9.80
8227;BMP180;4154;48.810;9.012;2023-10-31T06:04:42;95803.00;;;9.90
8227;BMP180;4154;48.810;9.012;2023-10-31T06:07:10;95806.00;;;9.80
8227;BMP180;4154;48.810;9.012;2023-10-31T06:09:36;95809.00;;;9.80
8227;BMP180;4154;48.810;9.012;2023-10-31T06:12:02;95811.00;;;9.80
8227;BMP180;4154;48.810;9.012;2023-10-31T06:14:27;95824.00;;;9.80
8227;BMP180;4154;48.810;9.012;2023-10-31T06:16:53;95830.00;;;9.80
8227;BMP180;4154;48.810;9.012;2023-10-31T06:19:19;95833.00;;;9.80
8227;BMP180;4154;48.810;9.012;2023-10-31T06:21:46;95828.00;;;9.80
8227;BMP180;4154;48.810;9.012;2023-10-31T06:24:11;95832.00;;;9.80
8227;BMP180;4154;48.810;9.012;2023-10-31T06:26:37;95840.00;;;9.80
8227;BMP180;4154;48.810;9.012;2023-10-31T06:29:03;95844.00;;;9.80
8227;BMP180;4154;48.810;9.012;2023-10-31T06:31:29;95839.00;;;9.80
8227;BMP180;4154;48.810;9.012;2023-10-31T06:33:55;95850.00;;;9.80
8227;BMP180;4154;48.810;9.012;2023-10-31T06:36:21;95841.00;;;9.80
8227;BMP180;4154;48.810;9.012;2023-10-31T06:38:46;95848.00;;;9.80
8227;BMP180;4154;48.810;9.012;2023-10-31T06:41:12;95855.00;;;9.80
8227;BMP180;4154;48.810;9.012;2023-10-31T06:43:38;95862.00;;;9.80
8227;BMP180;4154;48.810;9.012;2023-10-31T06:46:04;95871.00;;;9.80
8227;BMP180;4154;48.810;9.012;2023-10-31T06:48:30;95877.00;;;9.90
8227;BMP180;4154;48.810;9.012;2023-10-31T06:50:56;95886.00;;;9.90
8227;BMP180;4154;48.810;9.012;2023-10-31T06:53:21;95886.00;;;9.90
8227;BMP180;4154;48.810;9.012;2023-10-31T06:55:47;95881.00;;;9.90
8227;BMP180;4154;48.810;9.012;2023-10-31T06:58:13;95881.00;;;9.90
8227;BMP180;4154;48.810;9.012;2023-10-31T07:00:39;95892.00;;;9.90
8227;BMP180;4154;48.810;9.012;2023-10-31T07:03:05;95889.00;;;9.90
8227;BMP180;4154;48.810;9.012;2023-10-31T07:05:35;95901.00;;;9.90
8227;BMP180;4154;48.810;9.012;2023-10-31T07:08:01;95896.00;;;9.90
8227;BMP180;4154;48.810;9.012;2023-10-31T07:10:28;95904.00;;;10.00
8227;BMP180;4154;48.810;9.012;2023-10-31T07:12:54;95911.00;;;10.00
8227;BMP180;4154;48.810;9.012;2023-10-31T07:15:20;95904.00;;;10.00
8227;BMP180;4154;48.810;9.012;2023-10-31T07:17:47;95914.00;;;10.00
8227;BMP180;4154;48.810;9.012;2023-10-31T07:20:13;95911.00;;;10.00
8227;BMP180;4154;48.810;9.012;2023-10-31T07:22:39;95909.00;;;10.00
8227;BMP180;4154;48.810;9.012;2023-10-31T07:25:06;95902.00;;;10.00
8227;BMP180;4154;48.810;9.012;2023-10-31T07:27:33;95911.00;;;10.00
8227;BMP180;4154;48.810;9.012;2023-10-31T07:29:58;95916.00;;;10.10
8227;BMP180;4154;48.810;9.012;2023-10-31T07:32:25;95911.00;;;10.10
8227;BMP180;4154;48.810;9.012;2023-10-31T07:34:51;95909.00;;;10.10
8227;BMP180;4154;48.810;9.012;2023-10-31T07:37:18;95921.00;;;10.10
8227;BMP180;4154;48.810;9.012;2023-10-31T07:39:45;95911.00;;;10.10
8227;BMP180;4154;48.810;9.012;2023-10-31T07:42:11;95925.00;;;10.10
8227;BMP180;4154;48.810;9.012;2023-10-31T07:44:37;95935.00;;;10.20
8227;BMP180;4154;48.810;9.012;2023-10-31T07:47:03;95939.00;;;10.20
8227;BMP180;4154;48.810;9.012;2023-10-31T07:49:28;95936.00;;;10.20
8227;BMP180;4154;48.810;9.012;2023-10-31T07:51:54;95935.00;;;10.20
8227;BMP180;4154;48.810;9.012;2023-10-31T07:54:20;95944.00;;;10.30
8227;BMP180;4154;48.810;9.012;2023-10-31T07:56:46;95943.00;;;10.30
8227;BMP180;4154;48.810;9.012;2023-10-31T07:59:11;95953.00;;;10.30
8227;BMP180;4154;48.810;9.012;2023-10-31T08:01:37;95959.00;;;10.40
8227;BMP180;4154;48.810;9.012;2023-10-31T08:04:03;95957.00;;;10.40
8227;BMP180;4154;48.810;9.012;2023-10-31T08:06:29;95957.00;;;10.40
8227;BMP180;4154;48.810;9.012;2023-10-31T08:08:54;95957.00;;;10.50
8227;BMP180;4154;48.810;9.012;2023-10-31T08:11:20;95958.00;;;10.50
8227;BMP180;4154;48.810;9.012;2023-10-31T08:13:46;95953.00;;;10.50
8227;BMP180;4154;48.810;9.012;2023-10-31T08:16:18;95954.00;;;10.50
8227;BMP180;4154;48.810;9.012;2023-10-31T08:18:45;95966.00;;;10.60
8227;BMP180;4154;48.810;9.012;2023-10-31T08:21:11;95963.00;;;10.60
8227;BMP180;4154;48.810;9.012;2023-10-31T08:23:37;95966.00;;;10.60
8227;BMP180;4154;48.810;9.012;2023-10-31T08:26:03;95970.00;;;10.60
8227;BMP180;4154;48.810;9.012;2023-10-31T08:28:29;95978.00;;;10.60
8227;BMP180;4154;48.810;9.012;2023-10-31T08:30:57;95979.00;;;10.60
8227;BMP180;4154;48.810;9.012;2023-10-31T08:33:23;95986.00;;;10.60
8227;BMP180;4154;48.810;9.012;2023-10-31T08:35:49;95978.00;;;10.60
8227;BMP180;4154;48.810;9.012;2023-10-31T08:38:15;95979.00;;;10.70
8227;BMP180;4154;48.810;9.012;2023-10-31T08:40:41;95982.00;;;10.70
8227;BMP180;4154;48.810;9.012;2023-10-31T08:43:07;95985.00;;;10.70
8227;BMP180;4154;48.810;9.012;2023-10-31T08:45:33;96001.00;;;10.70
8227;BMP180;4154;48.810;9.012;2023-10-31T08:48:00;95997.00;;;10.70
8227;BMP180;4154;48.810;9.012;2023-10-31T08:50:26;96014.00;;;10.70
8227;BMP180;4154;48.810;9.012;2023-10-31T08:52:52;96006.00;;;10.80
8227;BMP180;4154;48.810;9.012;2023-10-31T08:55:18;95994.00;;;10.70
8227;BMP180;4154;48.810;9.012;2023-10-31T08:57:44;96009.00;;;10.80
8227;BMP180;4154;48.810;9.012;2023-10-31T09:00:10;95999.00;;;10.80
8227;BMP180;4154;48.810;9.012;2023-10-31T09:02:36;95992.00;;;10.80
8227;BMP180;4154;48.810;9.012;2023-10-31T09:05:01;96004.00;;;10.80
8227;BMP180;4154;48.810;9.012;2023-10-31T09:07:27;96003.00;;;10.80
8227;BMP180;4154;48.810;9.012;2023-10-31T09:09:53;96009.00;;;10.80
8227;BMP180;4154;48.810;9.012;2023-10-31T09:12:19;96005.00;;;10.90
8227;BMP180;4154;48.810;9.012;2023-10-31T09:14:44;96009.00;;;10.90
8227;BMP180;4154;48.810;9.012;2023-10-31T09:17:10;96007.00;;;10.90
8227;BMP180;4154;48.810;9.012;2023-10-31T09:19:36;96012.00;;;11.00
8227;BMP180;4154;48.810;9.012;2023-10-31T09:22:02;96008.00;;;11.00
8227;BMP180;4154;48.810;9.012;2023-10-31T09:24:27;96004.00;;;11.00
8227;BMP180;4154;48.810;9.012;2023-10-31T09:26:53;96000.00;;;11.10
8227;BMP180;4154;48.810;9.012;2023-10-31T09:29:19;96007.00;;;11.10
8227;BMP180;4154;48.810;9.012;2023-10-31T09:31:44;96009.00;;;11.10
8227;BMP180;4154;48.810;9.012;2023-10-31T09:34:10;96009.00;;;11.10
8227;BMP180;4154;48.810;9.012;2023-10-31T09:36:36;96010.00;;;11.10
8227;BMP180;4154;48.810;9.012;2023-10-31T09:39:02;96013.00;;;11.20
8227;BMP180;4154;48.810;9.012;2023-10-31T09:41:29;96016.00;;;11.20
8227;BMP180;4154;48.810;9.012;2023-10-31T09:43:56;96016.00;;;11.30
8227;BMP180;4154;48.810;9.012;2023-10-31T09:46:22;96013.00;;;11.40
8227;BMP180;4154;48.810;9.012;2023-10-31T09:48:49;96015.00;;;11.50
8227;BMP180;4154;48.810;9.012;2023-10-31T09:51:15;96013.00;;;11.50
8227;BMP180;4154;48.810;9.012;2023-10-31T09:53:44;96022.00;;;11.60
8227;BMP180;4154;48.810;9.012;2023-10-31T09:56:10;96018.00;;;11.60
8227;BMP180;4154;48.810;9.012;2023-10-31T09:58:36;96008.00;;;11.60
8227;BMP180;4154;48.810;9.012;2023-10-31T10:01:02;96000.00;;;11.60
8227;BMP180;4154;48.810;9.012;2023-10-31T10:03:29;96017.00;;;11.70
8227;BMP180;4154;48.810;9.012;2023-10-31T10:05:55;96010.00;;;11.70
8227;BMP180;4154;48.810;9.012;2023-10-31T10:08:22;96019.00;;;11.80
8227;BMP180;4154;48.810;9.012;2023-10-31T10:10:50;96005.00;;;11.70
8227;BMP180;4154;48.810;9.012;2023-10-31T10:13:20;96009.00;;;11.70
8227;BMP180;4154;48.810;9.012;2023-10-31T10:15:48;96005.00;;;11.70
8227;BMP180;4154;48.810;9.012;2023-10-31T10:18:28;95999.00;;;11.70
8227;BMP180;4154;48.810;9.012;2023-10-31T10:21:06;96009.00;;;11.70
8227;BMP180;4154;48.810;9.012;2023-10-31T10:23:32;96010.00;;;11.70
8227;BMP180;4154;48.810;9.012;2023-10-31T10:26:01;96020.00;;;11.70
8227;BMP180;4154;48.810;9.012;2023-10-31T10:28:27;96014.00;;;11.80
8227;BMP180;4154;48.810;9.012;2023-10-31T10:30:56;96013.00;;;11.80
8227;BMP180;4154;48.810;9.012;2023-10-31T10:33:22;96020.00;;;11.80
8227;BMP180;4154;48.810;9.012;2023-10-31T10:35:48;96030.00;;;11.80
8227;BMP180;4154;48.810;9.012;2023-10-31T10:38:19;96026.00;;;11.80
8227;BMP180;4154;48.810;9.012;2023-10-31T10:40:48;96036.00;;;11.80
8227;BMP180;4154;48.810;9.012;2023-10-31T10:43:23;96024.00;;;11.90
8227;BMP180;4154;48.810;9.012;2023-10-31T10:45:59;96027.00;;;11.90
8227;BMP180;4154;48.810;9.012;2023-10-31T10:48:26;96028.00;;;11.90
8227;BMP180;4154;48.810;9.012;2023-10-31T10:51:00;96032.00;;;11.90
8227;BMP180;4154;48.810;9.012;2023-10-31T10:53:41;96036.00;;;11.90
8227;BMP180;4154;48.810;9.012;2023-10-31T10:56:19;96039.00;;;12.00
8227;BMP180;4154;48.810;9.012;2023-10-31T10:59:20;96045.00;;;12.00
8227;BMP180;4154;48.810;9.012;2023-10-31T11:01:47;96036.00;;;12.00
8227;BMP180;4154;48.810;9.012;2023-10-31T11:04:15;96033.00;;;12.10
8227;BMP180;4154;48.810;9.012;2023-10-31T11:06:43;96043.00;;;12.10
8227;BMP180;4154;48.810;9.012;2023-10-31T11:09:10;96029.00;;;12.10
8227;BMP180;4154;48.810;9.012;2023-10-31T11:11:39;96031.00;;;12.10
8227;BMP180;4154;48.810;9.012;2023-10-31T11:14:05;96033.00;;;12.10
8227;BMP180;4154;48.810;9.012;2023-10-31T11:16:44;96034.00;;;12.20
8227;BMP180;4154;48.810;9.012;2023-10-31T11:19:11;96042.00;;;12.20
8227;BMP180;4154;48.810;9.012;2023-10-31T11:21:57;96038.00;;;12.20
8227;BMP180;4154;48.810;9.012;2023-10-31T11:24:23;96045.00;;;12.20
8227;BMP180;4154;48.810;9.012;2023-10-31T11:26:53;96035.00;;;12.30
8227;BMP180;4154;48.810;9.012;2023-10-31T11:29:24;96042.00;;;12.30
8227;BMP180;4154;48.810;9.012;2023-10-31T11:31:49;96038.00;;;12.30
8227;BMP180;4154;48.810;9.012;2023-10-31T11:34:17;96045.00;;;12.30
8227;BMP180;4154;48.810;9.012;2023-10-31T11:36:46;96048.00;;;12.30
8227;BMP180;4154;48.810;9.012;2023-10-31T11:39:18;96057.00;;;12.30
8227;BMP180;4154;48.810;9.012;2023-10-31T11:41:50;96051.00;;;12.30
8227;BMP180;4154;48.810;9.012;2023-10-31T11:44:17;96060.00;;;12.40
8227;BMP180;4154;48.810;9.012;2023-10-31T11:46:43;96053.00;;;12.40
8227;BMP180;4154;48.810;9.012;2023-10-31T11:49:09;96056.00;;;12.40
8227;BMP180;4154;48.810;9.012;2023-10-31T11:51:34;96068.00;;;12.40
8227;BMP180;4154;48.810;9.012;2023-10-31T11:54:02;96068.00;;;12.40
8227;BMP180;4154;48.810;9.012;2023-10-31T11:56:28;96060.00;;;12.40
8227;BMP180;4154;48.810;9.012;2023-10-31T11:59:04;96065.00;;;12.40
8227;BMP180;4154;48.810;9.012;2023-10-31T12:01:30;96062.00;;;12.40
8227;BMP180;4154;48.810;9.012;2023-10-31T12:03:56;96064.00;;;12.40
8227;BMP180;4154;48.810;9.012;2023-10-31T12:06:21;96058.00;;;12.40
8227;BMP180;4154;48.810;9.012;2023-10-31T12:08:48;96063.00;;;12.50
8227;BMP180;4154;48.810;9.012;2023-10-31T12:11:23;96064.00;;;12.50
8227;BMP180;4154;48.810;9.012;2023-10-31T12:13:59;96057.00;;;12.50
8227;BMP180;4154;48.810;9.012;2023-10-31T12:16:29;96073.00;;;12.60
8227;BMP180;4154;48.810;9.012;2023-10-31T12:19:06;96071.00;;;12.60
8227;BMP180;4154;48.810;9.012;2023-10-31T12:21:40;96065.00;;;12.60
8227;BMP180;4154;48.810;9.012;2023-10-31T12:24:10;96058.00;;;12.70
8227;BMP180;4154;48.810;9.012;2023-10-31T12:26:36;96074.00;;;12.70
8227;BMP180;4154;48.810;9.012;2023-10-31T12:29:17;96074.00;;;12.70
8227;BMP180;4154;48.810;9.012;2023-10-31T12:31:48;96061.00;;;12.70
8227;BMP180;4154;48.810;9.012;2023-10-31T12:34:16;96075.00;;;12.70
8227;BMP180;4154;48.810;9.012;2023-10-31T12:36:43;96074.00;;;12.80
8227;BMP180;4154;48.810;9.012;2023-10-31T12:39:11;96080.00;;;12.80
8227;BMP180;4154;48.810;9.012;2023-10-31T12:41:39;96090.00;;;12.70
8227;BMP180;4154;48.810;9.012;2023-10-31T12:44:07;96088.00;;;12.70
8227;BMP180;4154;48.810;9.012;2023-10-31T12:46:40;96090.00;;;12.60
8227;BMP180;4154;48.810;9.012;2023-10-31T12:49:17;96093.00;;;12.60
8227;BMP180;4154;48.810;9.012;2023-10-31T12:51:59;96094.00;;;12.60
8227;BMP180;4154;48.810;9.012;2023-10-31T12:57:03;96097.00;;;12.60
8227;BMP180;4154;48.810;9.012;2023-10-31T12:59:31;96087.00;;;12.60
8227;BMP180;4154;48.810;9.012;2023-10-31T13:01:57;96085.00;;;12.70
8227;BMP180;4154;48.810;9.012;2023-10-31T13:04:31;96080.00;;;12.70
8227;BMP180;4154;48.810;9.012;2023-10-31T13:07:07;96089.00;;;12.80
8227;BMP180;4154;48.810;9.012;2023-10-31T13:09:37;96092.00;;;12.80
8227;BMP180;4154;48.810;9.012;2023-10-31T13:12:07;96098.00;;;12.90
8227;BMP180;4154;48.810;9.012;2023-10-31T13:14:33;96092.00;;;12.80
8227;BMP180;4154;48.810;9.012;2023-10-31T13:17:00;96102.00;;;12.90
8227;BMP180;4154;48.810;9.012;2023-10-31T13:19:26;96100.00;;;12.80
8227;BMP180;4154;48.810;9.012;2023-10-31T13:21:51;96105.00;;;12.80
8227;BMP180;4154;48.810;9.012;2023-10-31T13:24:17;96105.00;;;12.80
8227;BMP180;4154;48.810;9.012;2023-10-31T13:26:44;96107.00;;;12.80
8227;BMP180;4154;48.810;9.012;2023-10-31T13:29:11;96114.00;;;12.90
8227;BMP180;4154;48.810;9.012;2023-10-31T13:31:37;96118.00;;;12.80
8227;BMP180;4154;48.810;9.012;2023-10-31T13:34:03;96117.00;;;12.90
8227;BMP180;4154;48.810;9.012;2023-10-31T13:36:33;96119.00;;;12.80
8227;BMP180;4154;48.810;9.012;2023-10-31T13:38:58;96125.00;;;12.80
8227;BMP180;4154;48.810;9.012;2023-10-31T13:41:24;96130.00;;;12.80
8227;BMP180;4154;48.810;9.012;2023-10-31T13:43:50;96126.00;;;12.90
8227;BMP180;4154;48.810;9.012;2023-10-31T13:46:15;96130.00;;;12.90
8227;BMP180;4154;48.810;9.012;2023-10-31T13:48:41;96127.00;;;12.90
8227;BMP180;4154;48.810;9.012;2023-10-31T13:51:07;96128.00;;;12.90
8227;BMP180;4154;48.810;9.012;2023-10-31T13:53:32;96131.00;;;12.90
8227;BMP180;4154;48.810;9.012;2023-10-31T13:55:58;96141.00;;;12.80
8227;BMP180;4154;48.810;9.012;2023-10-31T13:58:24;96140.00;;;12.90
8227;BMP180;4154;48.810;9.012;2023-10-31T14:00:50;96134.00;;;12.90
8227;BMP180;4154;48.810;9.012;2023-10-31T14:03:15;96141.00;;;12.90
8227;BMP180;4154;48.810;9.012;2023-10-31T14:05:41;96146.00;;;13.00
8227;BMP180;4154;48.810;9.012;2023-10-31T14:08:07;96147.00;;;12.90
8227;BMP180;4154;48.810;9.012;2023-10-31T14:10:34;96151.00;;;13.00
8227;BMP180;4154;48.810;9.012;2023-10-31T14:12:59;96148.00;;;13.00
8227;BMP180;4154;48.810;9.012;2023-10-31T14:15:25;96154.00;;;12.90
8227;BMP180;4154;48.810;9.012;2023-10-31T14:17:51;96156.00;;;13.00
8227;BMP180;4154;48.810;9.012;2023-10-31T14:20:17;96157.00;;;12.90
8227;BMP180;4154;48.810;9.012;2023-10-31T14:22:52;96157.00;;;12.90
8227;BMP180;4154;48.810;9.012;2023-10-31T14:25:18;96156.00;;;12.90
8227;BMP180;4154;48.810;9.012;2023-10-31T14:27:43;96164.00;;;12.90
8227;BMP180;4154;48.810;9.012;2023-10-31T14:30:11;96158.00;;;12.90
8227;BMP180;4154;48.810;9.012;2023-10-31T14:32:38;96169.00;;;12.90
8227;BMP180;4154;48.810;9.012;2023-10-31T14:35:05;96173.00;;;12.90
8227;BMP180;4154;48.810;9.012;2023-10-31T14:37:35;96182.00;;;12.80